Avoca, PA (18641)

6:49 PM EDT on July 25, 2016 (GMT -0400)
Duryea | | Change Station

Elev 709 ft 41.34 °N, 75.76 °W | Updated 1 minute ago

Light Rain
Light Rain
72.3 °F
Feels Like 72.3 °F
N
1.7
Wind Variable Wind from West

Today
High -- | Low -- °F
--% Chance of Precip.
Yesterday
High -- | Low -- °F
Precip. -- in
Pressure 29.89 in
Visibility 10.0 miles
Clouds Few 9500 ft
Scattered Clouds 12000 ft
Dew Point 72 °F
Humidity 99%
Rainfall 0.76 in
Snow Depth Not available.
5:52 AM 8:26 PM
Waning Gibbous, 61% visible
METAR KAVP 252154Z AUTO 13003KT 10SM -RA FEW095 SCT120 23/22 A2992 RMK AO2 LTG DSNT E-SW TSE2057 SLP122 P0006 T02280217 $
Pressure 29.89 in
Visibility 10.0 miles
Clouds Few 9500 ft
Scattered Clouds 12000 ft
Dew Point 72 °F
Humidity 99%
Rainfall 0.76 in
Snow Depth Not available.
5:52 AM 8:26 PM
Waning Gibbous, 61% visible
METAR KAVP 252154Z AUTO 13003KT 10SM -RA FEW095 SCT120 23/22 A2992 RMK AO2 LTG DSNT E-SW TSE2057 SLP122 P0006 T02280217 $
Record highs are possible for parts of the Northeast Monday and Tuesday, as parts of the central U.S. take a little breather from the worst of summer's dog day heat.

Expansive high pressure in the upper atmosphere will focus on parts of the East and West this week, sending heat indices well into the triple digits from the Mid-Atlantic states into the South.

10-Day Weather Forecast

Almanac

Astronomy

Jul. 25, 2016 Rise Set
Actual Time
Civil Twilight
Nautical Twilight
Astronomical Twilight
Moon
Length of Visible Light
Length of Day
Tomorrow will be .
, % of the Moon is Illuminated

Today's Extremes

State Highs State Lows

Community

WunderPhotos

Upload Photos

1,927,436 photos uploaded!

WunderBlog® & News

Nearby

Air Quality

  Air Quality AQ Index Pollutant
Not available.

Snow Depth

Station Depth Elevation

Earthquake Activity

City Distance Mag. Time & Date
Minimum magnitude displayed is 2.5.

Coastal Water Temperatures

Place Temperature

Stations

Nearby Weather Stations

Station Location Temp. Windchill Dew Point Humidity Wind Precip. Elev Updated Type
                   

Watches & Warnings

There are currently no watches in effect.